Time;durP1;ratioP1;P1;durP2;ratioP2;P2;SDS_P1;SDS_P2;PMS_P1;PMS_P2;Temp;Humidity;BMP_temperature;BMP_pressure;BME280_temperature;BME280_humidity;BME280_pressure;Samples;Min_cycle;Max_cycle;Signal;HPM_P1;HPM_P2
2023/09/12 00:00:08;;;;;;;27.80;15.63;;;21.20;99.90;;;;;;4214836;28;20051;-83
2023/09/12 00:02:10;;;;;;;24.45;16.15;;;21.20;99.90;;;;;;4215321;28;20051;-83
2023/09/12 00:04:11;;;;;;;28.05;16.30;;;21.20;99.90;;;;;;4213399;28;20044;-83
2023/09/12 00:06:12;;;;;;;26.35;16.42;;;21.20;99.90;;;;;;4219706;28;20059;-84
2023/09/12 00:08:12;;;;;;;25.52;15.32;;;21.00;99.90;;;;;;4227154;28;20129;-83
2023/09/12 00:10:14;;;;;;;25.42;15.20;;;21.10;99.90;;;;;;4215362;28;20515;-83
2023/09/12 00:12:15;;;;;;;26.20;16.48;;;21.00;99.90;;;;;;4213997;28;20423;-83
2023/09/12 00:14:17;;;;;;;25.52;16.13;;;21.00;99.90;;;;;;4215516;28;20067;-83
2023/09/12 00:16:18;;;;;;;24.92;15.40;;;20.90;99.90;;;;;;4225154;28;20134;-83
2023/09/12 00:18:19;;;;;;;24.30;15.98;;;21.00;99.90;;;;;;4214467;28;20542;-84
2023/09/12 00:20:20;;;;;;;28.67;15.88;;;21.00;99.90;;;;;;4232375;28;20468;-83
2023/09/12 00:22:21;;;;;;;29.95;16.38;;;21.00;99.90;;;;;;4197258;28;20052;-83
2023/09/12 00:24:21;;;;;;;24.70;14.45;;;21.00;99.90;;;;;;4197626;28;20552;-83
2023/09/12 00:26:22;;;;;;;22.85;15.38;;;21.00;99.90;;;;;;4232477;28;20067;-83
2023/09/12 00:28:23;;;;;;;24.30;14.05;;;20.50;99.90;;;;;;4197471;28;20048;-83
2023/09/12 00:30:24;;;;;;;29.77;15.45;;;20.80;99.90;;;;;;4232097;28;20122;-83
2023/09/12 00:32:25;;;;;;;30.10;15.95;;;20.90;99.90;;;;;;4197481;28;20048;-83
2023/09/12 00:34:26;;;;;;;26.13;15.93;;;20.90;99.90;;;;;;4232346;28;20042;-83
2023/09/12 00:36:26;;;;;;;31.17;16.60;;;20.90;99.90;;;;;;4214411;28;20123;-83
2023/09/12 00:38:27;;;;;;;30.98;16.70;;;20.90;99.90;;;;;;4215176;28;20097;-84
2023/09/12 00:40:28;;;;;;;28.42;15.55;;;20.90;99.90;;;;;;4215173;28;20131;-83
2023/09/12 00:42:29;;;;;;;27.75;16.10;;;20.90;99.90;;;;;;4236613;28;20047;-83
2023/09/12 00:44:30;;;;;;;27.10;15.45;;;20.90;99.90;;;;;;4249481;28;20063;-83
2023/09/12 00:46:32;;;;;;;22.70;14.48;;;20.80;99.90;;;;;;4233361;28;20161;-83
2023/09/12 00:48:33;;;;;;;28.20;16.13;;;20.90;99.90;;;;;;4241109;28;20511;-83
2023/09/12 00:50:35;;;;;;;25.13;15.55;;;20.80;99.90;;;;;;4239997;28;20058;-83
2023/09/12 00:52:37;;;;;;;26.27;16.48;;;20.90;99.90;;;;;;4233741;28;20039;-83
2023/09/12 00:54:40;;;;;;;26.10;15.23;;;20.90;99.90;;;;;;4197620;28;20109;-83
2023/09/12 00:56:41;;;;;;;25.67;16.80;;;20.90;99.90;;;;;;4213709;28;20127;-83
2023/09/12 00:58:42;;;;;;;32.95;16.75;;;20.90;99.90;;;;;;4213142;28;20579;-83
2023/09/12 01:00:43;;;;;;;23.70;15.00;;;21.00;99.90;;;;;;4213049;28;20044;-83
2023/09/12 01:02:46;;;;;;;28.20;16.35;;;21.00;99.90;;;;;;4231053;28;20051;-83
2023/09/12 01:04:47;;;;;;;29.13;15.38;;;21.60;99.90;;;;;;4212991;28;20054;-84
2023/09/12 01:06:48;;;;;;;30.10;16.23;;;20.90;99.90;;;;;;4230857;28;20055;-83
2023/09/12 01:08:49;;;;;;;30.58;16.60;;;20.80;99.90;;;;;;4241706;27;20047;-83
2023/09/12 01:10:52;;;;;;;25.48;15.45;;;20.80;99.90;;;;;;4229793;28;20459;-83
2023/09/12 01:12:53;;;;;;;27.25;16.27;;;20.80;99.90;;;;;;4247895;27;20086;-82
2023/09/12 01:14:54;;;;;;;29.10;16.55;;;20.80;99.90;;;;;;4229606;28;20040;-83
2023/09/12 01:16:56;;;;;;;28.75;15.65;;;20.80;99.90;;;;;;4248235;27;20062;-83
2023/09/12 01:18:57;;;;;;;26.33;15.77;;;20.80;99.90;;;;;;4247661;28;20146;-83
2023/09/12 01:21:17;;;;;;;26.80;15.70;;;20.70;99.90;;;;;;4247901;28;20043;-83
2023/09/12 01:23:54;;;;;;;31.48;16.35;;;20.70;99.90;;;;;;4247846;28;20491;-83
2023/09/12 01:26:09;;;;;;;25.17;15.70;;;20.70;99.90;;;;;;4247867;28;20047;-83
2023/09/12 01:28:11;;;;;;;24.52;14.88;;;20.70;99.90;;;;;;4229568;28;20048;-83
2023/09/12 01:30:15;;;;;;;27.20;16.45;;;20.60;99.90;;;;;;4212854;28;20122;-83
2023/09/12 01:32:18;;;;;;;25.75;15.45;;;20.60;99.90;;;;;;4247856;28;20042;-83
2023/09/12 01:34:19;;;;;;;27.67;15.15;;;20.50;99.90;;;;;;4247666;28;20613;-83
2023/09/12 01:36:21;;;;;;;27.05;16.10;;;20.50;99.90;;;;;;4247648;28;20047;-83
2023/09/12 01:38:22;;;;;;;29.50;16.88;;;20.50;99.90;;;;;;4247665;28;20084;-83
2023/09/12 01:40:36;;;;;;;24.92;15.70;;;20.40;99.90;;;;;;4247357;28;20047;-83
2023/09/12 01:42:41;;;;;;;26.48;15.68;;;20.50;99.90;;;;;;4229452;28;20501;-83
2023/09/12 01:44:46;;;;;;;26.02;16.30;;;20.50;99.90;;;;;;4247837;28;20047;-83
2023/09/12 01:46:49;;;;;;;27.63;15.32;;;20.40;99.90;;;;;;4249023;27;20039;-83
2023/09/12 01:48:53;;;;;;;27.08;15.10;;;20.50;99.90;;;;;;4251322;27;20046;-83
2023/09/12 01:50:54;;;;;;;29.27;16.17;;;20.40;99.90;;;;;;4232480;28;20373;-83
2023/09/12 01:52:55;;;;;;;25.92;16.45;;;20.40;99.90;;;;;;4232967;28;20076;-83
2023/09/12 01:54:56;;;;;;;29.00;16.88;;;20.40;99.90;;;;;;4251201;27;20054;-83
2023/09/12 01:56:59;;;;;;;27.48;16.75;;;20.30;99.90;;;;;;4232563;28;20042;-83
2023/09/12 01:59:00;;;;;;;39.80;16.77;;;20.30;99.90;;;;;;4250581;27;20038;-83
2023/09/12 02:01:01;;;;;;;33.83;17.10;;;20.30;99.90;;;;;;4250719;27;20046;-83
2023/09/12 02:03:03;;;;;;;28.10;16.85;;;20.20;99.90;;;;;;4250979;27;20039;-83
2023/09/12 02:05:13;;;;;;;31.35;16.35;;;20.20;99.90;;;;;;4216051;28;20055;-83
2023/09/12 02:07:14;;;;;;;26.92;16.55;;;20.20;99.90;;;;;;4251007;27;20050;-83
2023/09/12 02:09:15;;;;;;;27.02;16.33;;;20.20;99.90;;;;;;4232532;28;20047;-83
2023/09/12 02:11:15;;;;;;;30.80;16.67;;;20.10;99.90;;;;;;4231955;28;20052;-83
2023/09/12 02:13:16;;;;;;;28.13;17.27;;;20.10;99.90;;;;;;4250810;27;20483;-83
2023/09/12 02:15:17;;;;;;;31.80;17.05;;;20.10;99.90;;;;;;4232042;28;20043;-83
2023/09/12 02:17:18;;;;;;;32.08;18.33;;;20.00;99.90;;;;;;4250708;27;20070;-83
2023/09/12 02:19:18;;;;;;;28.98;16.83;;;20.00;99.90;;;;;;4250652;27;20046;-83
2023/09/12 02:21:19;;;;;;;29.85;17.23;;;20.00;99.90;;;;;;4232353;28;20031;-83
2023/09/12 02:23:20;;;;;;;30.35;17.70;;;20.00;99.90;;;;;;4250417;27;20039;-83
2023/09/12 02:25:21;;;;;;;31.42;17.88;;;19.90;99.90;;;;;;4250482;27;20726;-83
2023/09/12 02:27:21;;;;;;;30.13;18.73;;;19.90;99.90;;;;;;4250739;27;20089;-84
2023/09/12 02:29:22;;;;;;;30.33;16.80;;;19.90;99.90;;;;;;4250789;27;20035;-83
2023/09/12 02:31:23;;;;;;;28.45;16.63;;;19.90;99.90;;;;;;4250719;27;20166;-83
2023/09/12 02:33:24;;;;;;;31.83;18.35;;;19.90;99.90;;;;;;4249837;27;20043;-83
2023/09/12 02:35:24;;;;;;;29.27;17.42;;;19.90;99.90;;;;;;4250608;27;20047;-83
2023/09/12 02:37:25;;;;;;;27.05;17.17;;;19.80;99.90;;;;;;4250232;27;20131;-83
2023/09/12 02:39:26;;;;;;;29.83;17.33;;;19.80;99.90;;;;;;4232013;28;20611;-83
2023/09/12 02:41:27;;;;;;;27.08;16.00;;;19.80;99.90;;;;;;4250195;27;20058;-83
2023/09/12 02:43:29;;;;;;;26.05;15.95;;;19.80;99.90;;;;;;4231924;28;20477;-83
2023/09/12 02:45:29;;;;;;;34.47;18.92;;;19.80;99.90;;;;;;4231654;28;20043;-83
2023/09/12 02:47:30;;;;;;;36.15;18.58;;;19.70;99.90;;;;;;4250023;27;20126;-83
2023/09/12 02:49:31;;;;;;;25.85;16.45;;;19.70;99.90;;;;;;4250311;27;20491;-83
2023/09/12 02:51:32;;;;;;;31.73;18.58;;;19.70;99.90;;;;;;4249858;27;20043;-83
2023/09/12 02:53:33;;;;;;;33.47;18.30;;;19.70;99.90;;;;;;4248826;27;20391;-83
2023/09/12 02:55:38;;;;;;;30.83;18.65;;;19.70;99.90;;;;;;4250089;27;20366;-83
2023/09/12 02:57:39;;;;;;;31.67;19.75;;;19.70;99.90;;;;;;4231284;28;20048;-83
2023/09/12 02:59:41;;;;;;;30.88;18.33;;;19.60;99.90;;;;;;4214605;28;20073;-83
2023/09/12 03:01:42;;;;;;;31.33;18.75;;;19.60;99.90;;;;;;4249810;27;20052;-83
2023/09/12 03:03:46;;;;;;;37.95;19.55;;;19.50;99.90;;;;;;4249238;27;20118;-83
2023/09/12 03:05:47;;;;;;;37.75;19.73;;;19.50;99.90;;;;;;4231983;28;20054;-83
2023/09/12 03:07:48;;;;;;;33.63;19.98;;;19.50;99.90;;;;;;4249956;27;20043;-83
2023/09/12 03:09:49;;;;;;;38.33;19.92;;;19.50;99.90;;;;;;4249908;27;20108;-83
2023/09/12 03:11:50;;;;;;;32.90;20.00;;;19.40;99.90;;;;;;4249384;27;20043;-83
2023/09/12 03:13:51;;;;;;;35.55;18.48;;;19.40;99.90;;;;;;4249998;27;20148;-83
2023/09/12 03:15:52;;;;;;;35.28;19.08;;;19.40;99.90;;;;;;4249365;27;20055;-83
2023/09/12 03:17:53;;;;;;;35.30;19.80;;;19.30;99.90;;;;;;4248628;27;20522;-83
2023/09/12 03:19:54;;;;;;;32.80;19.50;;;19.30;99.90;;;;;;4231456;28;20054;-83
2023/09/12 03:21:55;;;;;;;34.45;18.50;;;19.20;99.90;;;;;;4231370;28;20495;-83
2023/09/12 03:23:55;;;;;;;32.38;19.33;;;19.20;99.90;;;;;;4249425;27;20439;-83
2023/09/12 03:26:02;;;;;;;36.78;18.27;;;19.20;99.90;;;;;;4250018;27;20047;-83
2023/09/12 03:28:04;;;;;;;36.05;20.23;;;19.20;99.90;;;;;;4249919;27;20043;-83
2023/09/12 03:30:06;;;;;;;32.30;17.75;;;19.10;99.90;;;;;;4214484;28;20056;-83
2023/09/12 03:32:07;;;;;;;34.60;19.38;;;19.10;99.90;;;;;;4231422;28;20090;-83
2023/09/12 03:34:07;;;;;;;35.38;19.58;;;19.10;99.90;;;;;;4249451;27;20130;-83
2023/09/12 03:36:09;;;;;;;36.53;20.42;;;19.10;99.90;;;;;;4231081;28;20054;-83
2023/09/12 03:38:10;;;;;;;34.40;18.42;;;19.10;99.90;;;;;;4249342;27;20031;-83
2023/09/12 03:40:11;;;;;;;30.70;17.98;;;19.00;99.90;;;;;;4249468;27;20492;-83
2023/09/12 03:42:12;;;;;;;33.58;19.67;;;19.00;99.90;;;;;;4214261;28;20054;-83
2023/09/12 03:44:13;;;;;;;35.13;17.77;;;19.10;99.90;;;;;;4231210;28;20066;-83
2023/09/12 03:46:13;;;;;;;31.65;18.05;;;19.00;99.90;;;;;;4231490;28;20086;-83
2023/09/12 03:48:14;;;;;;;34.55;17.73;;;19.00;99.90;;;;;;4249441;27;20522;-83
2023/09/12 03:50:15;;;;;;;38.42;19.48;;;19.00;99.90;;;;;;4231317;28;20055;-83
2023/09/12 03:52:16;;;;;;;33.58;18.40;;;19.00;99.90;;;;;;4250275;27;20037;-83
2023/09/12 03:54:17;;;;;;;38.67;19.63;;;19.00;99.90;;;;;;4214953;28;20040;-84
2023/09/12 03:56:19;;;;;;;33.17;17.35;;;19.00;99.90;;;;;;4231161;28;20385;-83
2023/09/12 03:58:20;;;;;;;37.92;18.20;;;19.00;99.90;;;;;;4249087;27;20039;-83
2023/09/12 04:00:21;;;;;;;36.80;17.88;;;18.20;99.90;;;;;;4214156;28;20059;-82
2023/09/12 04:02:22;;;;;;;32.72;17.70;;;18.90;99.90;;;;;;4205998;28;20051;-83
2023/09/12 04:04:22;;;;;;;33.53;17.70;;;18.90;99.90;;;;;;4213933;28;20123;-83
2023/09/12 04:06:23;;;;;;;34.58;18.13;;;18.90;99.90;;;;;;4232042;28;20047;-83
2023/09/12 04:08:24;;;;;;;34.22;16.48;;;18.90;99.90;;;;;;4214183;28;20043;-83
2023/09/12 04:10:25;;;;;;;29.77;15.73;;;18.90;99.90;;;;;;4213567;28;20191;-83
2023/09/12 04:12:26;;;;;;;30.90;16.42;;;18.90;99.90;;;;;;4213775;28;20502;-83
2023/09/12 04:14:26;;;;;;;31.83;17.48;;;18.90;99.90;;;;;;4213723;28;20047;-84
2023/09/12 04:16:27;;;;;;;32.28;17.98;;;18.80;99.90;;;;;;4231217;28;20100;-83
2023/09/12 04:18:28;;;;;;;30.35;17.20;;;18.80;99.90;;;;;;4197236;28;20063;-84
2023/09/12 04:20:29;;;;;;;32.20;18.23;;;18.80;99.90;;;;;;4231941;28;20040;-84
2023/09/12 04:22:29;;;;;;;32.22;17.60;;;18.80;99.90;;;;;;4213769;28;20040;-83
2023/09/12 04:24:30;;;;;;;30.60;16.58;;;18.80;99.90;;;;;;4196644;28;20048;-84
2023/09/12 04:26:31;;;;;;;30.85;16.45;;;18.80;99.90;;;;;;4231809;28;20035;-83
2023/09/12 04:28:32;;;;;;;30.80;17.13;;;18.80;99.90;;;;;;4213027;28;20123;-83
2023/09/12 04:30:33;;;;;;;30.95;17.27;;;18.70;99.90;;;;;;4231576;28;20499;-84
2023/09/12 04:32:34;;;;;;;33.22;16.40;;;18.70;99.90;;;;;;4231263;28;20043;-83
2023/09/12 04:34:35;;;;;;;29.90;16.60;;;18.70;99.90;;;;;;4213297;28;20101;-83
2023/09/12 04:36:36;;;;;;;31.55;17.88;;;18.70;99.90;;;;;;4213336;28;20052;-83
2023/09/12 04:38:37;;;;;;;30.95;17.95;;;18.70;99.90;;;;;;4213076;28;20077;-83
2023/09/12 04:40:39;;;;;;;31.98;18.05;;;18.70;99.90;;;;;;4230877;28;20046;-83
2023/09/12 04:42:40;;;;;;;31.17;17.40;;;18.70;99.90;;;;;;4196257;28;20048;-83
2023/09/12 04:44:42;;;;;;;34.60;17.90;;;18.70;99.90;;;;;;4212890;28;20078;-83
2023/09/12 04:46:42;;;;;;;28.48;15.57;;;18.70;99.90;;;;;;4229899;28;20463;-83
2023/09/12 04:48:43;;;;;;;35.92;18.05;;;18.70;99.90;;;;;;4196333;28;20058;-84
2023/09/12 04:50:44;;;;;;;30.30;17.05;;;18.70;99.90;;;;;;4230985;28;20513;-83
2023/09/12 04:52:45;;;;;;;33.83;18.48;;;18.70;99.90;;;;;;4212897;28;20048;-83
2023/09/12 04:54:46;;;;;;;28.77;16.65;;;18.70;99.90;;;;;;4231211;28;20039;-84
2023/09/12 04:56:47;;;;;;;32.50;17.58;;;18.70;99.90;;;;;;4212885;28;20075;-83
2023/09/12 04:58:48;;;;;;;29.73;17.05;;;18.70;99.90;;;;;;4230507;28;20043;-83
2023/09/12 05:00:48;;;;;;;31.70;16.90;;;18.70;99.90;;;;;;4233898;27;20067;-84
2023/09/12 05:02:49;;;;;;;31.30;17.80;;;18.70;99.90;;;;;;4230849;28;20035;-84
2023/09/12 05:04:53;;;;;;;31.00;16.52;;;18.70;99.90;;;;;;4231175;28;20124;-84
2023/09/12 05:06:54;;;;;;;31.05;17.30;;;18.70;99.90;;;;;;4230643;28;20044;-84
2023/09/12 05:08:55;;;;;;;36.47;18.13;;;18.70;99.90;;;;;;4212573;28;20048;-84
2023/09/12 05:11:02;;;;;;;32.25;17.60;;;18.70;99.90;;;;;;4230990;28;20059;-84
2023/09/12 05:13:03;;;;;;;32.25;17.88;;;18.70;99.90;;;;;;4230401;28;20048;-84
2023/09/12 05:15:04;;;;;;;31.27;17.58;;;18.70;99.90;;;;;;4230821;28;20094;-83
2023/09/12 05:17:05;;;;;;;30.65;16.98;;;18.80;99.90;;;;;;4213956;28;20095;-84
2023/09/12 05:19:06;;;;;;;34.25;18.40;;;18.70;99.90;;;;;;4212381;28;20492;-83
2023/09/12 05:21:07;;;;;;;35.65;18.52;;;18.70;99.90;;;;;;4214138;28;20480;-83
2023/09/12 05:23:07;;;;;;;32.50;18.20;;;18.70;99.90;;;;;;4218246;28;20040;-84
2023/09/12 05:25:08;;;;;;;30.92;17.35;;;18.70;99.90;;;;;;4218510;28;20048;-84
2023/09/12 05:27:10;;;;;;;32.42;17.15;;;18.70;99.90;;;;;;4218309;28;20452;-84
2023/09/12 05:29:11;;;;;;;34.80;19.25;;;18.70;99.90;;;;;;4218484;28;20063;-84
2023/09/12 05:31:12;;;;;;;34.05;18.38;;;18.60;99.90;;;;;;4218154;28;20043;-84
2023/09/12 05:33:12;;;;;;;35.13;18.33;;;18.80;99.90;;;;;;4218082;28;20409;-84
2023/09/12 05:35:13;;;;;;;35.45;18.45;;;18.60;99.90;;;;;;4219341;28;20523;-84
2023/09/12 05:37:14;;;;;;;31.42;17.98;;;18.60;99.90;;;;;;4218594;28;20044;-84
2023/09/12 05:39:15;;;;;;;32.58;18.48;;;18.60;99.90;;;;;;4219834;28;20044;-84
2023/09/12 05:41:15;;;;;;;37.88;18.90;;;18.60;99.90;;;;;;4219649;28;20040;-84
2023/09/12 05:43:17;;;;;;;32.45;17.02;;;18.60;99.90;;;;;;4222893;28;20489;-84
2023/09/12 05:45:17;;;;;;;35.17;18.52;;;18.60;99.90;;;;;;4218216;28;20044;-84
2023/09/12 05:47:18;;;;;;;35.20;19.77;;;18.60;99.90;;;;;;4218585;28;20098;-85
2023/09/12 05:49:19;;;;;;;30.55;17.08;;;18.60;99.90;;;;;;4231253;28;20036;-84
2023/09/12 05:51:20;;;;;;;32.88;18.65;;;18.60;99.90;;;;;;4218160;28;20431;-85
2023/09/12 05:53:21;;;;;;;36.13;18.48;;;18.60;99.90;;;;;;4235634;28;20040;-84
2023/09/12 05:55:24;;;;;;;36.33;19.73;;;18.60;99.90;;;;;;4241791;28;20069;-84
2023/09/12 05:57:25;;;;;;;31.48;18.08;;;18.60;99.90;;;;;;4256047;28;20044;-84
2023/09/12 05:59:26;;;;;;;31.08;18.45;;;18.60;99.90;;;;;;4250903;27;20448;-84
2023/09/12 06:01:27;;;;;;;35.65;19.08;;;18.60;99.90;;;;;;4229849;28;20516;-84
2023/09/12 06:03:27;;;;;;;38.72;19.55;;;18.70;99.90;;;;;;4221050;28;20114;-84
2023/09/12 06:05:28;;;;;;;36.75;18.98;;;18.70;99.90;;;;;;4223617;28;20122;-84
2023/09/12 06:07:30;;;;;;;36.47;19.55;;;18.70;99.90;;;;;;4220366;28;20051;-85
2023/09/12 06:09:31;;;;;;;37.53;19.73;;;18.70;99.90;;;;;;4220492;28;20051;-84
2023/09/12 06:11:32;;;;;;;41.80;19.70;;;18.70;99.90;;;;;;4220261;28;20047;-84
2023/09/12 06:13:32;;;;;;;36.17;19.15;;;18.70;99.90;;;;;;4220841;28;20916;-85
2023/09/12 06:15:33;;;;;;;47.42;22.08;;;18.70;99.90;;;;;;4224170;28;20605;-84
2023/09/12 06:17:34;;;;;;;40.17;20.55;;;18.60;99.90;;;;;;4218930;28;20202;-84
2023/09/12 06:19:37;;;;;;;43.17;19.92;;;18.60;99.90;;;;;;4237242;27;20096;-84
2023/09/12 06:21:37;;;;;;;44.95;21.25;;;18.60;99.90;;;;;;4236616;28;20036;-83
2023/09/12 06:23:38;;;;;;;46.45;19.67;;;18.60;99.90;;;;;;4236447;28;20053;-85
2023/09/12 06:25:39;;;;;;;47.67;21.55;;;18.60;99.90;;;;;;4201442;28;20048;-84
2023/09/12 06:27:39;;;;;;;43.67;20.25;;;18.60;99.90;;;;;;4236607;28;20395;-83
2023/09/12 06:29:40;;;;;;;62.97;21.83;;;18.60;99.90;;;;;;4236128;28;20055;-84
2023/09/12 06:31:48;;;;;;;49.80;20.73;;;18.60;99.90;;;;;;4236720;28;20035;-84
2023/09/12 06:33:49;;;;;;;49.20;21.17;;;18.60;99.90;;;;;;4198715;28;20052;-84
2023/09/12 06:35:52;;;;;;;55.65;22.00;;;18.60;99.90;;;;;;4233608;28;20036;-84
2023/09/12 06:37:55;;;;;;;54.95;24.55;;;18.60;99.90;;;;;;4233511;28;20047;-84
2023/09/12 06:39:56;;;;;;;49.20;22.95;;;18.60;99.90;;;;;;4198668;28;20048;-84
2023/09/12 06:41:57;;;;;;;57.70;22.10;;;18.60;99.90;;;;;;4233055;28;20035;-84
2023/09/12 06:43:58;;;;;;;66.22;22.63;;;18.60;99.90;;;;;;4233330;28;20044;-84
2023/09/12 06:45:59;;;;;;;61.97;21.92;;;18.50;99.90;;;;;;4233209;28;20092;-84
2023/09/12 06:48:00;;;;;;;63.90;22.83;;;18.50;99.90;;;;;;4215468;28;20101;-84
2023/09/12 06:50:01;;;;;;;65.35;22.35;;;18.40;99.90;;;;;;4198299;28;20055;-84
2023/09/12 06:52:02;;;;;;;58.85;21.23;;;18.40;99.90;;;;;;4233341;28;20119;-84
2023/09/12 06:54:03;;;;;;;66.15;23.02;;;18.40;99.90;;;;;;4233338;28;20035;-84
2023/09/12 06:56:05;;;;;;;65.78;22.38;;;18.30;99.90;;;;;;4233265;28;20373;-84
2023/09/12 06:58:07;;;;;;;60.75;23.75;;;18.40;99.90;;;;;;4232849;28;20040;-85
2023/09/12 07:00:09;;;;;;;67.88;23.38;;;18.40;99.90;;;;;;4215099;28;20047;-84
2023/09/12 07:02:12;;;;;;;65.15;23.42;;;18.40;99.90;;;;;;4233540;28;20051;-84
2023/09/12 07:04:13;;;;;;;56.65;22.98;;;18.50;99.90;;;;;;4234174;28;20423;-84
2023/09/12 07:06:14;;;;;;;66.05;22.83;;;18.60;99.90;;;;;;4233813;28;20044;-84
2023/09/12 07:08:14;;;;;;;60.90;24.60;;;18.70;99.90;;;;;;4214692;28;20492;-84
2023/09/12 07:10:15;;;;;;;61.03;24.50;;;18.80;99.90;;;;;;4215687;28;20531;-86
2023/09/12 07:12:16;;;;;;;56.78;23.05;;;18.80;99.90;;;;;;4233899;28;20103;-85
2023/09/12 07:14:17;;;;;;;57.83;23.25;;;18.80;99.90;;;;;;4214940;28;20522;-83
2023/09/12 07:16:20;;;;;;;56.63;21.73;;;18.90;99.90;;;;;;4232366;28;20832;-82
2023/09/12 07:18:20;;;;;;;59.03;24.73;;;18.90;99.90;;;;;;4199718;28;20055;-82
2023/09/12 07:20:21;;;;;;;52.72;22.30;;;18.90;99.90;;;;;;4233517;28;20048;-82
2023/09/12 07:22:22;;;;;;;58.08;21.63;;;18.90;99.90;;;;;;4233842;28;20050;-82
2023/09/12 07:24:27;;;;;;;64.57;24.40;;;19.00;99.90;;;;;;4233717;28;20040;-82
2023/09/12 07:26:30;;;;;;;53.53;22.20;;;19.10;99.90;;;;;;4247650;28;20028;-81
2023/09/12 07:28:30;;;;;;;56.67;22.45;;;19.20;99.90;;;;;;4253083;28;20031;-81
2023/09/12 07:30:31;;;;;;;58.30;24.98;;;19.30;99.90;;;;;;4219593;28;20061;-82
2023/09/12 07:32:32;;;;;;;62.53;24.13;;;19.50;99.90;;;;;;4232389;28;20043;-82
2023/09/12 07:34:35;;;;;;;56.40;24.52;;;19.60;99.90;;;;;;4231760;28;20043;-82
2023/09/12 07:36:36;;;;;;;55.95;23.42;;;19.70;99.90;;;;;;4214304;28;20043;-81
2023/09/12 07:38:38;;;;;;;54.35;23.55;;;19.80;99.90;;;;;;4197392;28;20094;-82
2023/09/12 07:40:38;;;;;;;60.47;24.08;;;19.90;99.90;;;;;;4233178;28;20616;-82
2023/09/12 07:42:39;;;;;;;46.35;21.70;;;20.00;99.90;;;;;;4235759;28;20039;-82
2023/09/12 07:44:40;;;;;;;48.58;21.48;;;20.20;99.90;;;;;;4236353;28;20054;-82
2023/09/12 07:46:41;;;;;;;43.63;20.58;;;20.20;99.90;;;;;;4237709;28;20138;-82
2023/09/12 07:48:41;;;;;;;47.85;21.95;;;20.30;99.90;;;;;;4233666;28;20052;-82
2023/09/12 07:50:42;;;;;;;41.92;21.27;;;20.30;99.90;;;;;;4233457;28;20058;-82
2023/09/12 07:52:43;;;;;;;46.75;20.33;;;20.30;99.90;;;;;;4198001;28;20060;-83
2023/09/12 07:54:44;;;;;;;38.38;18.80;;;20.30;99.90;;;;;;4216201;28;20048;-82
2023/09/12 07:56:44;;;;;;;39.47;19.83;;;20.30;99.90;;;;;;4234012;28;20550;-83
2023/09/12 07:58:45;;;;;;;37.15;18.98;;;20.30;99.90;;;;;;4232931;28;20040;-82
2023/09/12 08:00:46;;;;;;;42.45;20.17;;;20.30;99.90;;;;;;4198175;28;20057;-82
2023/09/12 08:02:47;;;;;;;43.70;21.10;;;20.20;99.90;;;;;;4236363;28;20518;-82
2023/09/12 08:04:50;;;;;;;47.72;22.05;;;20.20;99.90;;;;;;4240391;28;20082;-82
2023/09/12 08:06:51;;;;;;;49.20;22.52;;;20.10;99.90;;;;;;4243467;28;20054;-82
2023/09/12 08:08:52;;;;;;;43.33;21.27;;;20.10;99.90;;;;;;4235317;28;20047;-82
2023/09/12 08:10:52;;;;;;;45.83;22.02;;;20.10;99.90;;;;;;4219030;28;20063;-83
2023/09/12 08:12:53;;;;;;;43.80;21.63;;;20.10;99.90;;;;;;4233260;28;20075;-82
2023/09/12 08:14:55;;;;;;;46.30;21.13;;;20.00;99.90;;;;;;4232765;28;20055;-82
2023/09/12 08:16:56;;;;;;;51.40;21.92;;;20.00;99.90;;;;;;4213343;28;20115;-83
2023/09/12 08:18:58;;;;;;;47.17;21.98;;;20.00;99.90;;;;;;4213046;28;20051;-82
2023/09/12 08:20:59;;;;;;;43.75;21.92;;;20.00;99.90;;;;;;4214695;28;20044;-82
2023/09/12 08:22:59;;;;;;;43.08;22.42;;;20.00;99.90;;;;;;4217307;28;20519;-82
2023/09/12 08:25:00;;;;;;;44.10;20.27;;;20.00;99.90;;;;;;4213403;28;20084;-83
2023/09/12 08:27:01;;;;;;;46.80;21.67;;;20.10;99.90;;;;;;4215037;28;20129;-83
2023/09/12 08:29:02;;;;;;;45.15;22.35;;;20.10;99.90;;;;;;4214853;28;20134;-83
2023/09/12 08:31:03;;;;;;;45.67;21.27;;;20.10;99.90;;;;;;4214868;28;20036;-83
2023/09/12 08:33:05;;;;;;;45.80;22.20;;;20.10;99.90;;;;;;4214256;28;20048;-82
2023/09/12 08:35:10;;;;;;;43.92;20.20;;;20.10;99.90;;;;;;4214714;28;20047;-83
2023/09/12 08:37:11;;;;;;;43.45;21.48;;;20.20;99.90;;;;;;4214470;28;20044;-82
2023/09/12 08:39:15;;;;;;;39.97;20.15;;;20.20;99.90;;;;;;4213019;28;20570;-82
2023/09/12 08:41:17;;;;;;;40.92;19.30;;;20.30;99.90;;;;;;4196271;28;20389;-83
2023/09/12 08:43:19;;;;;;;40.10;19.92;;;20.30;99.90;;;;;;4214913;28;20115;-82
2023/09/12 08:45:20;;;;;;;39.33;18.98;;;20.40;99.90;;;;;;4214295;28;20093;-82
2023/09/12 08:47:24;;;;;;;38.92;19.35;;;20.50;99.90;;;;;;4214543;28;20094;-82
2023/09/12 08:49:26;;;;;;;39.33;19.33;;;20.50;99.90;;;;;;4214304;28;20040;-82
2023/09/12 08:51:28;;;;;;;40.00;19.45;;;20.60;99.90;;;;;;4214495;28;20046;-83
2023/09/12 08:53:28;;;;;;;39.00;18.77;;;20.60;99.90;;;;;;4212770;28;20122;-83
2023/09/12 08:55:31;;;;;;;40.10;19.48;;;20.70;99.90;;;;;;4213835;28;20083;-83
2023/09/12 08:57:35;;;;;;;35.70;18.98;;;20.80;99.90;;;;;;4213882;28;20047;-82
2023/09/12 08:59:37;;;;;;;37.60;17.50;;;20.80;99.90;;;;;;4214343;28;20476;-82
2023/09/12 09:01:38;;;;;;;35.72;18.02;;;20.80;99.90;;;;;;4214302;28;20051;-82
2023/09/12 09:03:41;;;;;;;41.28;19.50;;;20.90;99.90;;;;;;4214298;28;20040;-82
2023/09/12 09:05:43;;;;;;;39.63;18.85;;;20.80;99.90;;;;;;4213978;28;20060;-82
2023/09/12 09:07:44;;;;;;;40.28;18.70;;;20.80;99.90;;;;;;4214193;28;20564;-82
2023/09/12 09:09:46;;;;;;;39.42;18.77;;;20.80;99.90;;;;;;4211972;28;20044;-82
2023/09/12 09:11:48;;;;;;;35.60;18.15;;;20.80;99.90;;;;;;4214234;28;20480;-82
2023/09/12 09:13:48;;;;;;;35.38;18.33;;;20.80;99.90;;;;;;4216948;28;20109;-82
2023/09/12 09:16:08;;;;;;;37.75;18.70;;;20.80;99.90;;;;;;4220124;28;20559;-82
2023/09/12 09:18:12;;;;;;;36.40;18.17;;;20.80;99.90;;;;;;4231021;28;20058;-82
2023/09/12 09:20:45;;;;;;;37.50;17.63;;;20.80;99.90;;;;;;4231099;28;20133;-82
2023/09/12 09:22:56;;;;;;;36.25;17.70;;;20.70;99.90;;;;;;4201660;28;20056;-82
2023/09/12 09:25:12;;;;;;;34.25;17.02;;;20.80;99.90;;;;;;4223787;28;20095;-82
2023/09/12 09:27:33;;;;;;;35.33;17.92;;;20.80;99.90;;;;;;4217319;28;20121;-82
2023/09/12 09:29:47;;;;;;;38.35;17.67;;;20.80;99.90;;;;;;4213270;28;20063;-82
2023/09/12 09:31:50;;;;;;;39.25;18.63;;;20.80;99.90;;;;;;4212938;28;20086;-82
2023/09/12 09:33:52;;;;;;;34.60;17.70;;;20.80;99.90;;;;;;4223597;28;20048;-82
2023/09/12 09:36:04;;;;;;;38.90;17.15;;;20.90;99.90;;;;;;4231633;28;20043;-82
2023/09/12 09:38:07;;;;;;;40.47;18.13;;;20.90;99.90;;;;;;4213070;28;20492;-82
2023/09/12 09:40:09;;;;;;;36.35;17.90;;;21.00;99.90;;;;;;4231718;28;20051;-82
2023/09/12 09:42:14;;;;;;;37.33;18.10;;;21.00;99.90;;;;;;4213179;28;20059;-82
2023/09/12 09:44:15;;;;;;;38.75;18.73;;;21.10;99.90;;;;;;4212862;28;20519;-82
2023/09/12 09:46:17;;;;;;;35.67;17.83;;;21.10;99.90;;;;;;4213123;28;20101;-83
2023/09/12 09:48:19;;;;;;;37.50;18.90;;;21.20;99.90;;;;;;4231196;28;20054;-83
2023/09/12 09:50:20;;;;;;;40.63;20.83;;;21.30;99.90;;;;;;4196308;28;20071;-82
2023/09/12 09:52:27;;;;;;;39.13;18.88;;;21.40;99.90;;;;;;4213001;28;20044;-82
2023/09/12 09:54:28;;;;;;;35.25;18.15;;;21.40;99.90;;;;;;4230812;28;20054;-83
2023/09/12 09:56:30;;;;;;;34.25;17.52;;;21.50;99.90;;;;;;4230795;28;20044;-82
2023/09/12 09:58:30;;;;;;;33.90;17.67;;;21.50;99.90;;;;;;4212183;28;20059;-82
2023/09/12 10:00:34;;;;;;;35.42;18.83;;;21.60;99.90;;;;;;4196008;28;20052;-82
2023/09/12 10:02:37;;;;;;;34.95;18.52;;;21.90;99.90;;;;;;4230741;28;20048;-82
2023/09/12 10:04:39;;;;;;;38.65;18.02;;;22.00;99.90;;;;;;4212434;28;20530;-83
2023/09/12 10:06:43;;;;;;;36.05;18.05;;;22.10;99.90;;;;;;4212528;28;20478;-84
2023/09/12 10:08:46;;;;;;;40.33;20.00;;;22.30;99.90;;;;;;4232902;28;20039;-82
2023/09/12 10:10:47;;;;;;;39.88;18.60;;;22.40;99.90;;;;;;4215435;28;20626;-82
2023/09/12 10:12:51;;;;;;;35.20;18.05;;;22.50;99.90;;;;;;4215371;28;20101;-82
2023/09/12 10:14:52;;;;;;;29.27;16.73;;;22.60;99.90;;;;;;4215417;28;20114;-83
2023/09/12 10:17:00;;;;;;;33.78;17.65;;;22.60;99.90;;;;;;4233593;28;20059;-83
2023/09/12 10:19:25;;;;;;;34.38;18.33;;;22.70;99.90;;;;;;4215152;28;20043;-83